Terminal Aerodrome Forecast
Issued by NWS

Home | Current Version | Previous Version | Text Only | Print | Product List | Glossary On
Versions: 1 2 3 4 5 6 7 8 9 10 11 12 13 14 15 16 17 18 19 20 21 22 23 24 25
000
FTUS44 KOUN 252320
TAFWWR
TAF
KWWR 252320Z 2600/2624 20012KT P6SM SCT120
     FM260300 16006KT P6SM BKN050
     FM260900 14006KT 3SM BR BKN010
     FM261500 14007KT P6SM BKN030=

USA.gov is the U.S. government's official web portal to all federal, state and local government web resources and services.